CDT,Max TemperatureF,Mean TemperatureF,Min TemperatureF,Max Dew PointF,MeanDew PointF,Min DewpointF,Max Humidity, Mean Humidity, Min Humidity, Max Sea Level PressureIn, Mean Sea Level PressureIn, Min Sea Level PressureIn, Max VisibilityMiles, Mean VisibilityMiles, Min VisibilityMiles, Max Wind SpeedMPH, Mean Wind SpeedMPH, Max Gust SpeedMPH,PrecipitationIn, CloudCover, Events, WindDirDegrees
2012-10-1,66,52,39,45,36,25,82,52,22,30.04,29.98,29.92,10,9,4,17,9,23,0.00,0,,295
2012-10-2,75,57,39,37,29,19,65,37,13,29.92,29.74,29.60,10,10,7,36,14,47,0.00,0,,204
2012-10-3,57,48,39,43,38,34,87,73,48,30.08,29.94,29.74,10,10,10,18,8,24,0.15,2,Rain,328
2012-10-4,41,37,33,36,30,28,87,82,81,30.05,29.91,29.79,10,4,0,28,19,36,0.56,5,Rain-Snow-Thunderstorm,329
2012-10-5,35,34,33,30,29,28,87,81,81,30.25,30.06,29.94,10,5,1,22,18,28,0.00,2,Snow,320
2012-10-6,39,32,24,32,27,19,86,79,70,30.31,30.24,30.08,10,9,0,10,8,,0.00,1,Fog,268
2012-10-7,44,38,33,37,30,25,87,72,65,30.05,29.86,29.71,10,10,10,13,9,,0.00,2,,209
2012-10-8,42,37,32,37,34,28,87,84,81,29.71,29.58,29.50,10,9,3,8,2,,0.18,2,Rain,55
2012-10-9,39,36,33,36,31,28,87,81,70,29.93,29.76,29.55,10,9,2,22,9,26,0.01,4,Snow,297
2012-10-10,42,35,28,36,30,23,87,79,61,29.96,29.92,29.89,10,10,2,14,6,18,0.00,4,Rain,242
2012-10-11,42,33,24,32,25,19,86,72,49,30.35,30.15,29.92,10,10,10,20,8,24,0.00,2,,295
2012-10-12,46,34,21,27,23,16,86,67,43,30.35,30.16,29.84,10,10,10,23,9,28,0.00,1,,176
2012-10-13,55,45,35,37,30,21,70,58,47,29.83,29.72,29.66,10,10,10,14,8,18,0.00,0,,213
2012-10-14,53,42,32,36,32,27,87,72,44,29.92,29.88,29.84,10,10,7,10,5,16,0.00,1,,296
2012-10-15,55,42,28,46,35,23,86,73,58,29.89,29.74,29.52,10,10,7,16,7,22,0.00,1,Rain,167
2012-10-16,66,50,35,48,41,30,87,67,43,29.52,29.43,29.28,10,10,3,12,4,,0.00,0,,152
2012-10-17,55,52,50,46,45,41,82,78,62,29.27,29.13,29.03,10,8,2,15,6,,0.51,4,Rain,105
2012-10-18,51,46,42,46,42,37,87,84,81,29.62,29.34,29.09,10,9,4,25,13,31,0.48,6,Rain,13
2012-10-19,42,42,41,37,37,36,87,82,81,29.73,29.70,29.62,10,7,0,21,11,26,0.11,7,Rain,357
2012-10-20,48,44,41,43,39,36,87,82,76,29.73,29.68,29.63,10,8,0,18,6,23,0.00,3,Fog,176
2012-10-21,51,44,35,46,41,30,87,83,76,30.06,29.83,29.68,10,9,2,14,8,16,0.02,2,Rain,245
2012-10-22,46,37,28,39,33,25,87,81,71,30.15,30.09,30.00,10,9,2,15,5,17,0.00,1,,50
2012-10-23,51,46,42,46,42,37,87,83,76,29.99,29.77,29.65,10,8,2,16,11,24,0.32,6,Rain-Thunderstorm,115
2012-10-24,50,42,35,45,36,28,87,80,75,29.97,29.88,29.69,10,10,7,14,9,22,0.00,5,,283
2012-10-25,39,34,30,30,28,27,87,78,65,29.96,29.90,29.85,10,9,1,17,8,29,0.01,4,Snow,279
2012-10-26,33,30,28,28,24,19,81,71,60,30.21,30.13,29.96,10,10,7,17,13,28,0.00,6,Snow,267
2012-10-27,30,24,19,21,18,14,86,69,60,30.32,30.26,30.19,10,10,10,13,6,20,0.00,4,,263
2012-10-28,33,26,19,19,17,16,86,71,52,30.34,30.31,30.28,10,10,10,12,3,,0.00,3,,79
2012-10-29,44,34,24,34,27,18,86,73,61,30.30,30.24,30.20,10,10,4,13,9,,0.00,2,Rain-Snow,103
2012-10-30,46,40,33,32,28,25,75,68,53,30.23,30.18,30.10,10,10,10,14,9,20,0.00,0,,123
2012-10-31,44,36,28,34,29,21,87,75,57,30.11,30.02,29.95,10,10,7,18,7,23,0.00,4,,114